Terminal Aerodrome Forecast
Issued by NWS

Home | Current Version | Previous Version | Text Only | Print | Product List | Glossary On
Versions: 1 2 3 4 5 6 7 8 9 10 11 12 13 14 15 16 17 18
000
FTUS41 KPHI 020900 AAB
TAFMIV
TAF AMD
KMIV 020903Z 0209/0306 10003KT 5SM -RA BR SCT004 OVC017
      TEMPO 0209/0213 5SM RA BR BKN004 OVC017
     FM021400 04006KT 6SM -RA OVC020
     FM021700 08007KT P6SM BKN050
     FM030300 06003KT P6SM -RA BKN025 OVC050=

USA.gov is the U.S. government's official web portal to all federal, state and local government web resources and services.